TimeCDT,TemperatureF,Dew PointF,Humidity,Sea Level PressureIn,VisibilityMPH,Wind Direction,Wind SpeedMPH,Gust SpeedMPH,PrecipitationIn,Events,Conditions,WindDirDegrees,DateUTC
12:15 AM,17.1,11.8,80,30.02,10.0,Calm,Calm,-,N/A,,Clear,0,2013-03-11 05:15:00
12:35 AM,16.2,10.4,78,30.03,10.0,SW,10.4,-,N/A,,Clear,230,2013-03-11 05:35:00
12:55 AM,16.7,11.8,81,30.03,10.0,SW,10.4,-,N/A,,Clear,230,2013-03-11 05:55:00
1:55 AM,18.0,13.8,84,30.02,10.0,WSW,8.1,-,N/A,,Clear,240,2013-03-11 06:55:00
2:15 AM,17.6,13.3,83,30.01,10.0,WSW,6.9,-,N/A,,Clear,250,2013-03-11 07:15:00
2:55 AM,16.7,13.3,86,30.00,10.0,WSW,9.2,-,N/A,,Clear,240,2013-03-11 07:55:00
3:15 AM,17.1,13.6,86,29.99,10.0,WSW,6.9,-,N/A,,Clear,240,2013-03-11 08:15:00
3:35 AM,17.6,14.0,86,29.99,10.0,WSW,8.1,-,N/A,,Clear,240,2013-03-11 08:35:00
3:55 AM,17.2,13.5,85,29.97,10.0,WSW,6.9,-,N/A,,Clear,240,2013-03-11 08:55:00
4:15 AM,17.6,13.6,84,29.96,10.0,WSW,8.1,-,N/A,,Clear,240,2013-03-11 09:15:00
4:35 AM,17.2,13.1,84,29.94,10.0,SW,9.2,-,N/A,,Clear,230,2013-03-11 09:35:00
4:55 AM,17.6,13.5,84,29.94,10.0,SW,11.5,-,N/A,,Clear,230,2013-03-11 09:55:00
5:15 AM,18.3,13.8,83,29.94,10.0,SW,8.1,-,N/A,,Clear,230,2013-03-11 10:15:00
5:35 AM,17.2,12.9,83,29.94,10.0,SW,8.1,-,N/A,,Clear,230,2013-03-11 10:35:00
5:55 AM,17.4,13.1,83,29.93,10.0,SW,8.1,-,N/A,,Clear,220,2013-03-11 10:55:00
6:15 AM,17.2,12.7,83,29.92,10.0,WSW,6.9,-,N/A,,Clear,240,2013-03-11 11:15:00
6:35 AM,16.7,12.7,84,29.93,10.0,WSW,8.1,-,N/A,,Clear,240,2013-03-11 11:35:00
6:55 AM,15.8,12.2,86,29.93,10.0,SW,6.9,-,N/A,,Clear,230,2013-03-11 11:55:00
7:15 AM,17.1,13.1,84,29.93,10.0,WSW,10.4,-,N/A,,Clear,240,2013-03-11 12:15:00
7:35 AM,17.1,12.7,83,29.93,10.0,WSW,8.1,-,N/A,,Clear,240,2013-03-11 12:35:00
7:55 AM,16.7,12.6,84,29.93,10.0,WSW,8.1,-,N/A,,Clear,240,2013-03-11 12:55:00
8:15 AM,16.9,13.1,85,29.93,10.0,SW,9.2,-,N/A,,Clear,230,2013-03-11 13:15:00
8:35 AM,17.6,13.3,83,29.94,10.0,WSW,9.2,-,N/A,,Clear,240,2013-03-11 13:35:00
8:55 AM,19.0,14.2,81,29.94,10.0,SW,6.9,-,N/A,,Clear,230,2013-03-11 13:55:00
9:15 AM,21.0,15.6,80,29.95,10.0,WSW,4.6,-,N/A,,Clear,240,2013-03-11 14:15:00
9:35 AM,23.7,17.8,78,29.94,10.0,SW,5.8,-,N/A,,Clear,230,2013-03-11 14:35:00
9:55 AM,27.7,20.1,73,29.94,10.0,SW,8.1,-,N/A,,Clear,230,2013-03-11 14:55:00
10:15 AM,30.6,22.5,72,29.94,10.0,WSW,8.1,-,N/A,,Clear,240,2013-03-11 15:15:00
10:35 AM,34.5,24.6,67,29.94,10.0,WSW,4.6,-,N/A,,Clear,250,2013-03-11 15:35:00
10:55 AM,38.3,27.0,64,29.93,10.0,West,6.9,-,N/A,,Clear,280,2013-03-11 15:55:00
11:15 AM,43.0,27.7,55,29.94,10.0,West,8.1,-,N/A,,Clear,260,2013-03-11 16:15:00
11:35 AM,44.6,26.8,50,29.94,10.0,WNW,10.4,-,N/A,,Clear,290,2013-03-11 16:35:00
11:55 AM,45.0,28.2,52,29.94,10.0,WNW,11.5,-,N/A,,Clear,300,2013-03-11 16:55:00
12:15 PM,45.5,28.9,52,29.94,10.0,WNW,12.7,-,N/A,,Clear,300,2013-03-11 17:15:00
12:35 PM,46.0,28.4,50,29.94,10.0,NW,13.8,-,N/A,,Clear,310,2013-03-11 17:35:00
12:55 PM,46.6,28.8,50,29.94,10.0,NW,12.7,17.3,N/A,,Clear,310,2013-03-11 17:55:00
1:15 PM,46.6,28.2,49,29.94,10.0,NNW,11.5,16.1,N/A,,Clear,330,2013-03-11 18:15:00
1:35 PM,47.3,29.5,50,29.94,10.0,NW,12.7,17.3,N/A,,Clear,310,2013-03-11 18:35:00
1:55 PM,48.0,29.8,49,29.94,10.0,NNW,11.5,-,N/A,,Clear,330,2013-03-11 18:55:00
2:15 PM,48.6,29.7,48,29.93,10.0,NNW,9.2,-,N/A,,Clear,340,2013-03-11 19:15:00
2:35 PM,50.0,29.8,46,29.92,10.0,NNW,12.7,17.3,N/A,,Clear,340,2013-03-11 19:35:00
2:55 PM,51.4,30.9,45,29.92,10.0,North,13.8,18.4,N/A,,Scattered Clouds,350,2013-03-11 19:55:00
3:15 PM,52.2,31.1,45,29.91,10.0,North,15.0,-,N/A,,Scattered Clouds,360,2013-03-11 20:15:00
3:35 PM,52.7,29.7,41,29.91,10.0,North,13.8,18.4,N/A,,Scattered Clouds,360,2013-03-11 20:35:00
3:55 PM,52.9,30.0,42,29.91,10.0,North,13.8,21.9,N/A,,Scattered Clouds,360,2013-03-11 20:55:00
4:15 PM,54.0,30.4,41,29.92,10.0,NNW,12.7,-,N/A,,Scattered Clouds,340,2013-03-11 21:15:00
4:35 PM,54.9,29.7,38,29.92,10.0,North,16.1,-,N/A,,Overcast,360,2013-03-11 21:35:00
4:55 PM,51.8,27.9,40,29.92,10.0,North,13.8,18.4,N/A,,Overcast,350,2013-03-11 21:55:00
5:15 PM,51.1,28.8,42,29.92,10.0,North,10.4,-,N/A,,Overcast,350,2013-03-11 22:15:00
5:35 PM,49.3,29.7,47,29.93,10.0,North,15.0,21.9,N/A,,Overcast,360,2013-03-11 22:35:00
5:55 PM,45.3,32.9,62,29.95,10.0,North,17.3,25.3,N/A,,Light Drizzle,360,2013-03-11 22:55:00
6:15 PM,45.0,33.3,64,29.96,10.0,North,16.1,24.2,N/A,,Overcast,350,2013-03-11 23:15:00
6:35 PM,43.3,33.3,68,29.97,10.0,North,9.2,-,N/A,,Overcast,350,2013-03-11 23:35:00
6:55 PM,43.7,32.4,64,29.98,10.0,NW,12.7,-,N/A,,Overcast,320,2013-03-11 23:55:00
7:15 PM,43.3,30.7,61,29.98,10.0,NW,12.7,20.7,N/A,,Overcast,320,2013-03-12 00:15:00
7:35 PM,43.0,29.1,58,30.00,10.0,NNW,17.3,24.2,N/A,,Overcast,330,2013-03-12 00:35:00
7:55 PM,41.9,28.4,59,30.02,10.0,NNW,10.4,21.9,N/A,,Light Drizzle,330,2013-03-12 00:55:00
8:15 PM,41.5,27.7,58,30.02,10.0,North,10.4,17.3,N/A,,Overcast,360,2013-03-12 01:15:00
8:35 PM,41.4,26.6,56,30.00,10.0,WSW,5.8,-,N/A,,Overcast,250,2013-03-12 01:35:00
8:55 PM,40.1,28.2,63,30.01,10.0,West,6.9,-,N/A,,Overcast,260,2013-03-12 01:55:00
9:15 PM,40.1,28.4,63,30.03,10.0,West,6.9,-,N/A,,Overcast,270,2013-03-12 02:15:00
9:35 PM,41.2,25.7,54,30.04,10.0,NW,6.9,-,N/A,,Overcast,320,2013-03-12 02:35:00
9:55 PM,42.4,23.7,48,30.03,10.0,NW,10.4,-,N/A,,Overcast,320,2013-03-12 02:55:00
10:15 PM,41.7,25.5,53,30.05,10.0,West,9.2,-,N/A,,Overcast,270,2013-03-12 03:15:00
10:35 PM,40.5,27.1,59,30.04,10.0,WSW,11.5,-,N/A,,Overcast,250,2013-03-12 03:35:00
10:55 PM,39.0,28.2,65,30.06,10.0,West,8.1,-,N/A,,Overcast,260,2013-03-12 03:55:00
11:15 PM,37.8,30.2,74,30.08,10.0,West,5.8,-,N/A,,Overcast,270,2013-03-12 04:15:00
11:35 PM,37.8,31.1,77,30.09,10.0,West,9.2,-,N/A,,Overcast,270,2013-03-12 04:35:00
11:55 PM,37.4,31.5,79,30.10,10.0,West,9.2,-,N/A,,Mostly Cloudy,270,2013-03-12 04:55:00